sensor_id;sensor_type;location;lat;lon;timestamp;P1;durP1;ratioP1;P2;durP2;ratioP2
23171;SDS011;11754;42.664;23.594;2023-05-07T00:02:23;11.13;;;6.18;;
23171;SDS011;11754;42.664;23.594;2023-05-07T00:04:49;10.55;;;6.10;;
23171;SDS011;11754;42.664;23.594;2023-05-07T00:07:15;7.97;;;5.68;;
23171;SDS011;11754;42.664;23.594;2023-05-07T00:13:05;7.90;;;6.18;;
23171;SDS011;11754;42.664;23.594;2023-05-07T00:15:30;10.48;;;6.60;;
23171;SDS011;11754;42.664;23.594;2023-05-07T00:17:56;10.77;;;6.55;;
23171;SDS011;11754;42.664;23.594;2023-05-07T00:20:23;9.07;;;7.13;;
23171;SDS011;11754;42.664;23.594;2023-05-07T00:22:48;11.15;;;6.90;;
23171;SDS011;11754;42.664;23.594;2023-05-07T00:25:14;11.10;;;6.80;;
23171;SDS011;11754;42.664;23.594;2023-05-07T00:27:39;13.77;;;6.45;;
23171;SDS011;11754;42.664;23.594;2023-05-07T00:30:05;11.27;;;6.47;;
23171;SDS011;11754;42.664;23.594;2023-05-07T00:32:31;9.20;;;6.18;;
23171;SDS011;11754;42.664;23.594;2023-05-07T00:34:56;10.70;;;5.90;;
23171;SDS011;11754;42.664;23.594;2023-05-07T00:37:22;9.95;;;5.97;;
23171;SDS011;11754;42.664;23.594;2023-05-07T00:46:48;11.50;;;6.20;;
23171;SDS011;11754;42.664;23.594;2023-05-07T00:49:14;7.75;;;6.07;;
23171;SDS011;11754;42.664;23.594;2023-05-07T00:51:40;8.45;;;5.68;;
23171;SDS011;11754;42.664;23.594;2023-05-07T00:54:06;12.55;;;6.05;;
23171;SDS011;11754;42.664;23.594;2023-05-07T00:56:32;9.90;;;6.53;;
23171;SDS011;11754;42.664;23.594;2023-05-07T00:58:58;7.50;;;6.00;;
23171;SDS011;11754;42.664;23.594;2023-05-07T01:01:23;9.70;;;6.43;;
23171;SDS011;11754;42.664;23.594;2023-05-07T01:03:48;10.68;;;6.45;;
23171;SDS011;11754;42.664;23.594;2023-05-07T01:06:14;11.63;;;6.35;;
23171;SDS011;11754;42.664;23.594;2023-05-07T01:25:30;13.35;;;5.97;;
23171;SDS011;11754;42.664;23.594;2023-05-07T01:27:56;11.35;;;6.20;;
23171;SDS011;11754;42.664;23.594;2023-05-07T01:30:21;12.50;;;6.55;;
23171;SDS011;11754;42.664;23.594;2023-05-07T01:32:52;11.32;;;6.40;;
23171;SDS011;11754;42.664;23.594;2023-05-07T02:07:47;11.32;;;8.07;;
23171;SDS011;11754;42.664;23.594;2023-05-07T02:10:12;9.45;;;7.63;;
23171;SDS011;11754;42.664;23.594;2023-05-07T02:12:37;13.57;;;8.52;;
23171;SDS011;11754;42.664;23.594;2023-05-07T02:15:03;12.15;;;8.70;;
23171;SDS011;11754;42.664;23.594;2023-05-07T02:20:50;12.13;;;8.88;;
23171;SDS011;11754;42.664;23.594;2023-05-07T02:23:15;11.45;;;8.70;;
23171;SDS011;11754;42.664;23.594;2023-05-07T02:25:41;13.80;;;9.85;;
23171;SDS011;11754;42.664;23.594;2023-05-07T02:28:06;16.20;;;10.55;;
23171;SDS011;11754;42.664;23.594;2023-05-07T02:33:59;16.42;;;10.85;;
23171;SDS011;11754;42.664;23.594;2023-05-07T02:36:25;14.35;;;10.52;;
23171;SDS011;11754;42.664;23.594;2023-05-07T02:38:51;18.38;;;12.13;;
23171;SDS011;11754;42.664;23.594;2023-05-07T02:41:17;17.35;;;12.32;;
23171;SDS011;11754;42.664;23.594;2023-05-07T02:43:42;18.27;;;12.32;;
23171;SDS011;11754;42.664;23.594;2023-05-07T02:49:29;22.45;;;12.80;;
23171;SDS011;11754;42.664;23.594;2023-05-07T02:51:54;15.88;;;12.55;;
23171;SDS011;11754;42.664;23.594;2023-05-07T02:54:20;17.70;;;12.73;;
23171;SDS011;11754;42.664;23.594;2023-05-07T02:56:46;17.15;;;12.65;;
23171;SDS011;11754;42.664;23.594;2023-05-07T03:02:35;19.33;;;13.50;;
23171;SDS011;11754;42.664;23.594;2023-05-07T03:05:01;19.88;;;12.85;;
23171;SDS011;11754;42.664;23.594;2023-05-07T03:07:26;24.70;;;13.88;;
23171;SDS011;11754;42.664;23.594;2023-05-07T03:09:52;23.20;;;14.45;;
23171;SDS011;11754;42.664;23.594;2023-05-07T03:12:18;17.38;;;13.90;;
23171;SDS011;11754;42.664;23.594;2023-05-07T03:14:44;17.10;;;13.25;;
23171;SDS011;11754;42.664;23.594;2023-05-07T03:17:09;18.17;;;13.25;;
23171;SDS011;11754;42.664;23.594;2023-05-07T03:19:34;16.70;;;12.90;;
23171;SDS011;11754;42.664;23.594;2023-05-07T03:22:00;16.60;;;12.95;;
23171;SDS011;11754;42.664;23.594;2023-05-07T03:24:25;17.60;;;13.02;;
23171;SDS011;11754;42.664;23.594;2023-05-07T03:26:50;23.58;;;13.82;;
23171;SDS011;11754;42.664;23.594;2023-05-07T03:29:16;16.27;;;12.75;;
23171;SDS011;11754;42.664;23.594;2023-05-07T03:31:41;20.50;;;13.77;;
23171;SDS011;11754;42.664;23.594;2023-05-07T03:34:06;18.00;;;13.18;;
23171;SDS011;11754;42.664;23.594;2023-05-07T03:36:32;16.88;;;12.35;;
23171;SDS011;11754;42.664;23.594;2023-05-07T03:38:57;16.88;;;12.57;;
23171;SDS011;11754;42.664;23.594;2023-05-07T03:41:22;21.55;;;13.77;;
23171;SDS011;11754;42.664;23.594;2023-05-07T03:43:48;17.77;;;13.20;;
23171;SDS011;11754;42.664;23.594;2023-05-07T03:46:13;20.92;;;14.40;;
23171;SDS011;11754;42.664;23.594;2023-05-07T03:48:38;21.17;;;14.55;;
23171;SDS011;11754;42.664;23.594;2023-05-07T03:51:04;23.05;;;14.63;;
23171;SDS011;11754;42.664;23.594;2023-05-07T03:53:29;20.98;;;14.35;;
23171;SDS011;11754;42.664;23.594;2023-05-07T03:55:55;19.80;;;13.85;;
23171;SDS011;11754;42.664;23.594;2023-05-07T04:01:55;25.48;;;21.02;;
23171;SDS011;11754;42.664;23.594;2023-05-07T04:04:20;38.45;;;29.83;;
23171;SDS011;11754;42.664;23.594;2023-05-07T04:06:46;29.95;;;22.17;;
23171;SDS011;11754;42.664;23.594;2023-05-07T04:09:11;27.02;;;20.33;;
23171;SDS011;11754;42.664;23.594;2023-05-07T04:11:37;22.70;;;18.77;;
23171;SDS011;11754;42.664;23.594;2023-05-07T04:21:04;23.58;;;17.05;;
23171;SDS011;11754;42.664;23.594;2023-05-07T04:23:29;22.42;;;15.70;;
23171;SDS011;11754;42.664;23.594;2023-05-07T04:25:55;24.20;;;18.15;;
23171;SDS011;11754;42.664;23.594;2023-05-07T04:28:21;27.58;;;17.50;;
23171;SDS011;11754;42.664;23.594;2023-05-07T04:30:46;30.67;;;17.27;;
23171;SDS011;11754;42.664;23.594;2023-05-07T04:33:11;27.98;;;17.50;;
23171;SDS011;11754;42.664;23.594;2023-05-07T04:35:38;24.63;;;16.85;;
23171;SDS011;11754;42.664;23.594;2023-05-07T04:38:04;26.20;;;16.30;;
23171;SDS011;11754;42.664;23.594;2023-05-07T04:40:29;21.55;;;15.80;;
23171;SDS011;11754;42.664;23.594;2023-05-07T04:42:55;21.15;;;14.30;;
23171;SDS011;11754;42.664;23.594;2023-05-07T04:45:20;21.40;;;14.85;;
23171;SDS011;11754;42.664;23.594;2023-05-07T04:47:46;19.75;;;14.73;;
23171;SDS011;11754;42.664;23.594;2023-05-07T04:50:11;20.08;;;13.50;;
23171;SDS011;11754;42.664;23.594;2023-05-07T04:52:36;21.48;;;13.70;;
23171;SDS011;11754;42.664;23.594;2023-05-07T04:55:02;16.35;;;13.52;;
23171;SDS011;11754;42.664;23.594;2023-05-07T04:57:27;18.00;;;14.10;;
23171;SDS011;11754;42.664;23.594;2023-05-07T04:59:53;21.50;;;14.48;;
23171;SDS011;11754;42.664;23.594;2023-05-07T05:02:19;17.70;;;10.98;;
23171;SDS011;11754;42.664;23.594;2023-05-07T05:04:44;15.00;;;12.13;;
23171;SDS011;11754;42.664;23.594;2023-05-07T05:07:10;20.38;;;12.63;;
23171;SDS011;11754;42.664;23.594;2023-05-07T05:09:35;16.45;;;11.52;;
23171;SDS011;11754;42.664;23.594;2023-05-07T05:12:00;16.55;;;10.80;;
23171;SDS011;11754;42.664;23.594;2023-05-07T05:14:26;19.63;;;11.85;;
23171;SDS011;11754;42.664;23.594;2023-05-07T05:16:51;13.65;;;10.55;;
23171;SDS011;11754;42.664;23.594;2023-05-07T05:19:17;17.50;;;10.43;;
23171;SDS011;11754;42.664;23.594;2023-05-07T05:28:26;11.60;;;8.88;;
23171;SDS011;11754;42.664;23.594;2023-05-07T05:30:52;11.65;;;8.73;;
23171;SDS011;11754;42.664;23.594;2023-05-07T05:33:18;17.92;;;8.95;;
23171;SDS011;11754;42.664;23.594;2023-05-07T05:35:43;18.02;;;9.45;;
23171;SDS011;11754;42.664;23.594;2023-05-07T05:38:09;14.50;;;8.48;;
23171;SDS011;11754;42.664;23.594;2023-05-07T05:40:35;9.05;;;6.95;;
23171;SDS011;11754;42.664;23.594;2023-05-07T05:43:00;12.18;;;7.82;;
23171;SDS011;11754;42.664;23.594;2023-05-07T05:52:12;9.48;;;7.57;;
23171;SDS011;11754;42.664;23.594;2023-05-07T05:54:39;13.98;;;8.55;;
23171;SDS011;11754;42.664;23.594;2023-05-07T05:57:04;14.02;;;9.65;;
23171;SDS011;11754;42.664;23.594;2023-05-07T05:59:30;13.07;;;10.05;;
23171;SDS011;11754;42.664;23.594;2023-05-07T06:01:55;15.43;;;9.25;;
23171;SDS011;11754;42.664;23.594;2023-05-07T06:04:21;14.65;;;9.50;;
23171;SDS011;11754;42.664;23.594;2023-05-07T06:06:46;12.75;;;9.32;;
23171;SDS011;11754;42.664;23.594;2023-05-07T06:09:11;14.90;;;9.30;;
23171;SDS011;11754;42.664;23.594;2023-05-07T06:11:37;11.02;;;9.38;;
23171;SDS011;11754;42.664;23.594;2023-05-07T06:14:02;14.65;;;9.57;;
23171;SDS011;11754;42.664;23.594;2023-05-07T06:16:28;14.15;;;9.82;;
23171;SDS011;11754;42.664;23.594;2023-05-07T06:18:54;12.98;;;9.50;;
23171;SDS011;11754;42.664;23.594;2023-05-07T06:21:19;13.27;;;9.50;;
23171;SDS011;11754;42.664;23.594;2023-05-07T06:23:45;11.77;;;9.48;;
23171;SDS011;11754;42.664;23.594;2023-05-07T06:26:16;15.13;;;9.40;;
23171;SDS011;11754;42.664;23.594;2023-05-07T06:28:42;11.23;;;9.00;;
23171;SDS011;11754;42.664;23.594;2023-05-07T06:31:11;16.15;;;9.63;;
23171;SDS011;11754;42.664;23.594;2023-05-07T06:33:37;15.65;;;8.95;;
23171;SDS011;11754;42.664;23.594;2023-05-07T06:36:02;10.70;;;8.95;;
23171;SDS011;11754;42.664;23.594;2023-05-07T06:38:28;10.65;;;9.07;;
23171;SDS011;11754;42.664;23.594;2023-05-07T06:40:53;12.18;;;8.85;;
23171;SDS011;11754;42.664;23.594;2023-05-07T06:46:42;12.18;;;9.07;;
23171;SDS011;11754;42.664;23.594;2023-05-07T06:49:07;10.50;;;8.43;;
23171;SDS011;11754;42.664;23.594;2023-05-07T06:51:33;10.02;;;8.57;;
23171;SDS011;11754;42.664;23.594;2023-05-07T06:53:58;11.50;;;8.35;;
23171;SDS011;11754;42.664;23.594;2023-05-07T06:56:39;11.45;;;8.98;;
23171;SDS011;11754;42.664;23.594;2023-05-07T06:59:05;11.85;;;8.80;;
23171;SDS011;11754;42.664;23.594;2023-05-07T07:01:31;10.73;;;8.52;;
23171;SDS011;11754;42.664;23.594;2023-05-07T07:03:57;11.93;;;8.52;;
23171;SDS011;11754;42.664;23.594;2023-05-07T07:06:22;48.85;;;34.28;;
23171;SDS011;11754;42.664;23.594;2023-05-07T07:08:48;11.80;;;8.93;;
23171;SDS011;11754;42.664;23.594;2023-05-07T07:11:13;14.52;;;9.18;;
23171;SDS011;11754;42.664;23.594;2023-05-07T07:13:38;12.07;;;8.65;;
23171;SDS011;11754;42.664;23.594;2023-05-07T07:16:05;11.30;;;8.20;;
23171;SDS011;11754;42.664;23.594;2023-05-07T07:18:30;12.93;;;8.65;;
23171;SDS011;11754;42.664;23.594;2023-05-07T07:20:55;14.25;;;9.10;;
23171;SDS011;11754;42.664;23.594;2023-05-07T07:23:21;13.10;;;9.25;;
23171;SDS011;11754;42.664;23.594;2023-05-07T07:25:46;13.98;;;8.57;;
23171;SDS011;11754;42.664;23.594;2023-05-07T07:28:12;13.45;;;8.93;;
23171;SDS011;11754;42.664;23.594;2023-05-07T07:30:38;12.98;;;9.20;;
23171;SDS011;11754;42.664;23.594;2023-05-07T07:33:03;12.65;;;8.90;;
23171;SDS011;11754;42.664;23.594;2023-05-07T07:35:30;16.00;;;9.10;;
23171;SDS011;11754;42.664;23.594;2023-05-07T07:37:55;12.48;;;8.88;;
23171;SDS011;11754;42.664;23.594;2023-05-07T07:40:21;11.75;;;8.85;;
23171;SDS011;11754;42.664;23.594;2023-05-07T07:56:57;15.20;;;8.27;;
23171;SDS011;11754;42.664;23.594;2023-05-07T07:59:23;12.30;;;8.82;;
23171;SDS011;11754;42.664;23.594;2023-05-07T08:01:48;11.10;;;7.70;;
23171;SDS011;11754;42.664;23.594;2023-05-07T08:04:15;10.88;;;8.07;;
23171;SDS011;11754;42.664;23.594;2023-05-07T08:06:41;10.10;;;7.35;;
23171;SDS011;11754;42.664;23.594;2023-05-07T08:12:28;12.10;;;7.10;;
23171;SDS011;11754;42.664;23.594;2023-05-07T08:14:53;10.38;;;6.38;;
23171;SDS011;11754;42.664;23.594;2023-05-07T08:17:19;12.68;;;6.70;;
23171;SDS011;11754;42.664;23.594;2023-05-07T08:19:47;8.25;;;6.20;;
23171;SDS011;11754;42.664;23.594;2023-05-07T08:22:12;8.38;;;5.20;;
23171;SDS011;11754;42.664;23.594;2023-05-07T08:24:38;9.10;;;5.40;;
23171;SDS011;11754;42.664;23.594;2023-05-07T08:27:03;11.05;;;5.20;;
23171;SDS011;11754;42.664;23.594;2023-05-07T08:29:28;11.13;;;5.13;;
23171;SDS011;11754;42.664;23.594;2023-05-07T08:31:54;6.78;;;4.20;;
23171;SDS011;11754;42.664;23.594;2023-05-07T08:34:20;7.35;;;3.95;;
23171;SDS011;11754;42.664;23.594;2023-05-07T08:36:46;7.30;;;4.10;;
23171;SDS011;11754;42.664;23.594;2023-05-07T08:39:13;6.05;;;4.28;;
23171;SDS011;11754;42.664;23.594;2023-05-07T08:41:39;8.93;;;5.05;;
23171;SDS011;11754;42.664;23.594;2023-05-07T08:44:05;6.88;;;4.22;;
23171;SDS011;11754;42.664;23.594;2023-05-07T08:46:36;9.55;;;4.35;;
23171;SDS011;11754;42.664;23.594;2023-05-07T08:49:02;7.65;;;3.90;;
23171;SDS011;11754;42.664;23.594;2023-05-07T08:51:27;5.10;;;3.63;;
23171;SDS011;11754;42.664;23.594;2023-05-07T08:53:53;7.80;;;3.20;;
23171;SDS011;11754;42.664;23.594;2023-05-07T08:56:18;4.68;;;2.80;;
23171;SDS011;11754;42.664;23.594;2023-05-07T08:58:45;4.68;;;2.90;;
23171;SDS011;11754;42.664;23.594;2023-05-07T09:01:14;6.13;;;3.10;;
23171;SDS011;11754;42.664;23.594;2023-05-07T09:03:41;5.82;;;3.40;;
23171;SDS011;11754;42.664;23.594;2023-05-07T09:06:09;11.35;;;3.53;;
23171;SDS011;11754;42.664;23.594;2023-05-07T09:08:35;5.65;;;2.95;;
23171;SDS011;11754;42.664;23.594;2023-05-07T09:11:01;5.72;;;3.05;;
23171;SDS011;11754;42.664;23.594;2023-05-07T09:13:27;6.20;;;3.08;;
23171;SDS011;11754;42.664;23.594;2023-05-07T09:15:53;5.43;;;2.60;;
23171;SDS011;11754;42.664;23.594;2023-05-07T09:18:18;5.82;;;2.50;;
23171;SDS011;11754;42.664;23.594;2023-05-07T09:20:43;7.10;;;2.40;;
23171;SDS011;11754;42.664;23.594;2023-05-07T09:23:09;3.25;;;1.80;;
23171;SDS011;11754;42.664;23.594;2023-05-07T09:25:35;7.78;;;2.20;;
23171;SDS011;11754;42.664;23.594;2023-05-07T09:28:01;3.60;;;2.20;;
23171;SDS011;11754;42.664;23.594;2023-05-07T09:30:31;6.30;;;2.20;;
23171;SDS011;11754;42.664;23.594;2023-05-07T09:33:01;2.58;;;1.98;;
23171;SDS011;11754;42.664;23.594;2023-05-07T09:35:29;2.87;;;1.90;;
23171;SDS011;11754;42.664;23.594;2023-05-07T09:37:55;3.35;;;1.90;;
23171;SDS011;11754;42.664;23.594;2023-05-07T09:40:22;6.60;;;2.10;;
23171;SDS011;11754;42.664;23.594;2023-05-07T09:42:48;2.58;;;1.85;;
23171;SDS011;11754;42.664;23.594;2023-05-07T09:45:15;3.20;;;2.20;;
23171;SDS011;11754;42.664;23.594;2023-05-07T09:48:00;3.90;;;1.92;;
23171;SDS011;11754;42.664;23.594;2023-05-07T09:50:32;4.95;;;2.05;;
23171;SDS011;11754;42.664;23.594;2023-05-07T09:53:05;5.78;;;2.00;;
23171;SDS011;11754;42.664;23.594;2023-05-07T09:55:31;5.28;;;1.75;;
23171;SDS011;11754;42.664;23.594;2023-05-07T09:57:57;3.40;;;1.60;;
23171;SDS011;11754;42.664;23.594;2023-05-07T10:00:24;3.25;;;1.20;;
23171;SDS011;11754;42.664;23.594;2023-05-07T10:02:51;6.53;;;1.40;;
23171;SDS011;11754;42.664;23.594;2023-05-07T10:05:21;3.33;;;1.67;;
23171;SDS011;11754;42.664;23.594;2023-05-07T10:07:47;3.78;;;1.45;;
23171;SDS011;11754;42.664;23.594;2023-05-07T10:10:13;1.77;;;1.00;;
23171;SDS011;11754;42.664;23.594;2023-05-07T10:12:40;1.80;;;1.08;;
23171;SDS011;11754;42.664;23.594;2023-05-07T10:15:06;3.35;;;1.05;;
23171;SDS011;11754;42.664;23.594;2023-05-07T10:17:35;1.80;;;0.98;;
23171;SDS011;11754;42.664;23.594;2023-05-07T10:20:07;2.80;;;1.10;;
23171;SDS011;11754;42.664;23.594;2023-05-07T10:22:46;2.05;;;1.00;;
23171;SDS011;11754;42.664;23.594;2023-05-07T10:25:18;2.55;;;1.00;;
23171;SDS011;11754;42.664;23.594;2023-05-07T10:27:46;4.22;;;1.10;;
23171;SDS011;11754;42.664;23.594;2023-05-07T10:33:19;2.80;;;0.88;;
23171;SDS011;11754;42.664;23.594;2023-05-07T10:35:50;2.97;;;1.00;;
23171;SDS011;11754;42.664;23.594;2023-05-07T10:38:16;2.85;;;1.00;;
23171;SDS011;11754;42.664;23.594;2023-05-07T10:40:41;4.15;;;1.10;;
23171;SDS011;11754;42.664;23.594;2023-05-07T10:43:08;3.63;;;1.17;;
23171;SDS011;11754;42.664;23.594;2023-05-07T10:45:33;2.35;;;1.10;;
23171;SDS011;11754;42.664;23.594;2023-05-07T10:50:35;1.90;;;1.02;;
23171;SDS011;11754;42.664;23.594;2023-05-07T10:55:42;5.00;;;1.40;;
23171;SDS011;11754;42.664;23.594;2023-05-07T11:00:55;1.92;;;0.70;;
23171;SDS011;11754;42.664;23.594;2023-05-07T11:03:25;3.95;;;0.90;;
23171;SDS011;11754;42.664;23.594;2023-05-07T11:11:16;3.03;;;0.98;;
23171;SDS011;11754;42.664;23.594;2023-05-07T11:13:48;3.25;;;1.00;;
23171;SDS011;11754;42.664;23.594;2023-05-07T11:16:20;1.25;;;0.80;;
23171;SDS011;11754;42.664;23.594;2023-05-07T11:23:57;4.32;;;0.80;;
23171;SDS011;11754;42.664;23.594;2023-05-07T11:26:24;3.20;;;0.80;;
23171;SDS011;11754;42.664;23.594;2023-05-07T11:28:50;2.60;;;0.85;;
23171;SDS011;11754;42.664;23.594;2023-05-07T11:31:20;2.42;;;0.75;;
23171;SDS011;11754;42.664;23.594;2023-05-07T11:33:48;2.95;;;0.90;;
23171;SDS011;11754;42.664;23.594;2023-05-07T11:36:14;3.80;;;0.82;;
23171;SDS011;11754;42.664;23.594;2023-05-07T11:38:40;2.67;;;0.88;;
23171;SDS011;11754;42.664;23.594;2023-05-07T11:41:07;3.90;;;1.00;;
23171;SDS011;11754;42.664;23.594;2023-05-07T11:43:32;2.50;;;0.73;;
23171;SDS011;11754;42.664;23.594;2023-05-07T11:46:07;2.15;;;0.70;;
23171;SDS011;11754;42.664;23.594;2023-05-07T11:48:34;4.55;;;0.80;;
23171;SDS011;11754;42.664;23.594;2023-05-07T11:51:00;3.55;;;0.85;;
23171;SDS011;11754;42.664;23.594;2023-05-07T11:53:28;2.30;;;0.80;;
23171;SDS011;11754;42.664;23.594;2023-05-07T11:56:05;2.47;;;0.90;;
23171;SDS011;11754;42.664;23.594;2023-05-07T11:58:35;1.58;;;0.90;;
23171;SDS011;11754;42.664;23.594;2023-05-07T12:01:01;4.38;;;0.88;;
23171;SDS011;11754;42.664;23.594;2023-05-07T12:03:26;1.48;;;0.60;;
23171;SDS011;11754;42.664;23.594;2023-05-07T12:05:52;3.05;;;0.82;;
23171;SDS011;11754;42.664;23.594;2023-05-07T12:08:18;3.35;;;0.85;;
23171;SDS011;11754;42.664;23.594;2023-05-07T12:10:46;2.70;;;0.80;;
23171;SDS011;11754;42.664;23.594;2023-05-07T12:13:23;5.88;;;0.98;;
23171;SDS011;11754;42.664;23.594;2023-05-07T12:15:53;3.83;;;0.80;;
23171;SDS011;11754;42.664;23.594;2023-05-07T12:18:20;4.45;;;1.05;;
23171;SDS011;11754;42.664;23.594;2023-05-07T12:20:46;2.85;;;0.95;;
23171;SDS011;11754;42.664;23.594;2023-05-07T12:23:12;4.05;;;1.10;;
23171;SDS011;11754;42.664;23.594;2023-05-07T12:29:00;6.40;;;5.63;;
23171;SDS011;11754;42.664;23.594;2023-05-07T12:31:25;8.07;;;3.60;;
23171;SDS011;11754;42.664;23.594;2023-05-07T12:33:52;2.05;;;0.77;;
23171;SDS011;11754;42.664;23.594;2023-05-07T12:36:18;2.42;;;0.93;;
23171;SDS011;11754;42.664;23.594;2023-05-07T12:38:43;4.30;;;1.20;;
23171;SDS011;11754;42.664;23.594;2023-05-07T12:41:09;2.30;;;0.85;;
23171;SDS011;11754;42.664;23.594;2023-05-07T12:43:35;4.93;;;1.10;;
23171;SDS011;11754;42.664;23.594;2023-05-07T12:46:04;2.67;;;0.93;;
23171;SDS011;11754;42.664;23.594;2023-05-07T12:50:58;3.03;;;0.90;;
23171;SDS011;11754;42.664;23.594;2023-05-07T12:53:25;2.17;;;0.90;;
23171;SDS011;11754;42.664;23.594;2023-05-07T12:55:53;3.15;;;0.90;;
23171;SDS011;11754;42.664;23.594;2023-05-07T13:00:48;2.22;;;0.80;;
23171;SDS011;11754;42.664;23.594;2023-05-07T13:03:21;3.47;;;1.08;;
23171;SDS011;11754;42.664;23.594;2023-05-07T13:05:48;2.33;;;0.90;;
23171;SDS011;11754;42.664;23.594;2023-05-07T13:08:23;1.85;;;0.95;;
23171;SDS011;11754;42.664;23.594;2023-05-07T13:10:52;3.65;;;0.95;;
23171;SDS011;11754;42.664;23.594;2023-05-07T13:13:18;3.78;;;0.90;;
23171;SDS011;11754;42.664;23.594;2023-05-07T13:15:50;2.25;;;0.80;;
23171;SDS011;11754;42.664;23.594;2023-05-07T13:18:15;2.05;;;0.82;;
23171;SDS011;11754;42.664;23.594;2023-05-07T13:20:40;2.17;;;0.73;;
23171;SDS011;11754;42.664;23.594;2023-05-07T13:23:06;1.73;;;0.90;;
23171;SDS011;11754;42.664;23.594;2023-05-07T13:25:31;2.88;;;1.00;;
23171;SDS011;11754;42.664;23.594;2023-05-07T13:27:57;3.03;;;0.90;;
23171;SDS011;11754;42.664;23.594;2023-05-07T13:30:22;2.42;;;1.02;;
23171;SDS011;11754;42.664;23.594;2023-05-07T13:32:48;1.40;;;0.90;;
23171;SDS011;11754;42.664;23.594;2023-05-07T13:35:15;2.97;;;1.30;;
23171;SDS011;11754;42.664;23.594;2023-05-07T13:37:41;4.82;;;1.30;;
23171;SDS011;11754;42.664;23.594;2023-05-07T13:40:06;7.65;;;1.83;;
23171;SDS011;11754;42.664;23.594;2023-05-07T13:46:00;4.90;;;1.60;;
23171;SDS011;11754;42.664;23.594;2023-05-07T13:48:26;5.20;;;1.75;;
23171;SDS011;11754;42.664;23.594;2023-05-07T13:50:51;4.25;;;1.50;;
23171;SDS011;11754;42.664;23.594;2023-05-07T13:53:17;2.50;;;1.48;;
23171;SDS011;11754;42.664;23.594;2023-05-07T13:55:43;2.17;;;1.52;;
23171;SDS011;11754;42.664;23.594;2023-05-07T13:58:09;4.15;;;1.90;;
23171;SDS011;11754;42.664;23.594;2023-05-07T14:00:35;4.63;;;1.70;;
23171;SDS011;11754;42.664;23.594;2023-05-07T14:03:00;2.90;;;1.80;;
23171;SDS011;11754;42.664;23.594;2023-05-07T14:12:28;4.95;;;1.80;;
23171;SDS011;11754;42.664;23.594;2023-05-07T14:14:54;8.07;;;2.08;;
23171;SDS011;11754;42.664;23.594;2023-05-07T14:17:19;4.88;;;2.10;;
23171;SDS011;11754;42.664;23.594;2023-05-07T14:19:45;4.10;;;2.22;;
23171;SDS011;11754;42.664;23.594;2023-05-07T14:22:10;8.68;;;2.33;;
23171;SDS011;11754;42.664;23.594;2023-05-07T14:24:36;13.35;;;2.97;;
23171;SDS011;11754;42.664;23.594;2023-05-07T14:27:01;4.35;;;2.10;;
23171;SDS011;11754;42.664;23.594;2023-05-07T14:29:27;3.20;;;2.00;;
23171;SDS011;11754;42.664;23.594;2023-05-07T14:35:26;3.67;;;2.30;;
23171;SDS011;11754;42.664;23.594;2023-05-07T14:37:51;2.67;;;1.70;;
23171;SDS011;11754;42.664;23.594;2023-05-07T14:40:17;3.92;;;1.85;;
23171;SDS011;11754;42.664;23.594;2023-05-07T14:42:42;4.45;;;1.92;;
23171;SDS011;11754;42.664;23.594;2023-05-07T14:45:08;6.97;;;2.38;;
23171;SDS011;11754;42.664;23.594;2023-05-07T14:47:34;4.43;;;2.00;;
23171;SDS011;11754;42.664;23.594;2023-05-07T14:56:06;5.95;;;2.10;;
23171;SDS011;11754;42.664;23.594;2023-05-07T14:58:32;3.97;;;2.00;;
23171;SDS011;11754;42.664;23.594;2023-05-07T15:00:58;4.88;;;2.00;;
23171;SDS011;11754;42.664;23.594;2023-05-07T15:03:23;7.13;;;2.00;;
23171;SDS011;11754;42.664;23.594;2023-05-07T15:05:49;4.38;;;2.10;;
23171;SDS011;11754;42.664;23.594;2023-05-07T15:08:16;5.90;;;2.30;;
23171;SDS011;11754;42.664;23.594;2023-05-07T15:10:42;2.70;;;1.90;;
23171;SDS011;11754;42.664;23.594;2023-05-07T15:13:07;8.30;;;1.90;;
23171;SDS011;11754;42.664;23.594;2023-05-07T15:15:34;2.75;;;1.88;;
23171;SDS011;11754;42.664;23.594;2023-05-07T15:17:59;5.10;;;1.90;;
23171;SDS011;11754;42.664;23.594;2023-05-07T15:20:25;3.50;;;1.88;;
23171;SDS011;11754;42.664;23.594;2023-05-07T15:26:12;3.80;;;2.15;;
23171;SDS011;11754;42.664;23.594;2023-05-07T15:28:38;5.03;;;2.30;;
23171;SDS011;11754;42.664;23.594;2023-05-07T15:31:04;3.88;;;2.40;;
23171;SDS011;11754;42.664;23.594;2023-05-07T15:33:30;4.63;;;2.28;;
23171;SDS011;11754;42.664;23.594;2023-05-07T15:35:56;5.22;;;2.00;;
23171;SDS011;11754;42.664;23.594;2023-05-07T15:38:23;3.55;;;1.65;;
23171;SDS011;11754;42.664;23.594;2023-05-07T15:40:50;8.50;;;1.80;;
23171;SDS011;11754;42.664;23.594;2023-05-07T15:43:15;6.00;;;2.08;;
23171;SDS011;11754;42.664;23.594;2023-05-07T15:45:46;2.85;;;1.80;;
23171;SDS011;11754;42.664;23.594;2023-05-07T15:48:12;2.95;;;1.77;;
23171;SDS011;11754;42.664;23.594;2023-05-07T15:50:37;4.95;;;1.80;;
23171;SDS011;11754;42.664;23.594;2023-05-07T15:53:03;3.78;;;2.00;;
23171;SDS011;11754;42.664;23.594;2023-05-07T15:55:29;10.43;;;1.73;;
23171;SDS011;11754;42.664;23.594;2023-05-07T15:57:56;3.17;;;1.80;;
23171;SDS011;11754;42.664;23.594;2023-05-07T16:00:22;6.35;;;2.13;;
23171;SDS011;11754;42.664;23.594;2023-05-07T16:02:51;5.55;;;2.03;;
23171;SDS011;11754;42.664;23.594;2023-05-07T16:05:16;6.75;;;2.00;;
23171;SDS011;11754;42.664;23.594;2023-05-07T16:07:41;6.53;;;2.20;;
23171;SDS011;11754;42.664;23.594;2023-05-07T16:10:08;4.47;;;3.20;;
23171;SDS011;11754;42.664;23.594;2023-05-07T16:12:34;9.98;;;3.30;;
23171;SDS011;11754;42.664;23.594;2023-05-07T16:15:00;6.72;;;3.05;;
23171;SDS011;11754;42.664;23.594;2023-05-07T16:17:25;10.45;;;3.50;;
23171;SDS011;11754;42.664;23.594;2023-05-07T16:19:50;4.07;;;2.72;;
23171;SDS011;11754;42.664;23.594;2023-05-07T16:22:16;7.18;;;3.50;;
23171;SDS011;11754;42.664;23.594;2023-05-07T16:24:42;7.82;;;3.42;;
23171;SDS011;11754;42.664;23.594;2023-05-07T16:27:07;6.05;;;3.80;;
23171;SDS011;11754;42.664;23.594;2023-05-07T16:29:32;6.05;;;2.85;;
23171;SDS011;11754;42.664;23.594;2023-05-07T16:31:58;6.15;;;2.92;;
23171;SDS011;11754;42.664;23.594;2023-05-07T16:34:23;5.90;;;2.50;;
23171;SDS011;11754;42.664;23.594;2023-05-07T16:36:49;6.40;;;2.90;;
23171;SDS011;11754;42.664;23.594;2023-05-07T16:39:14;4.95;;;2.70;;
23171;SDS011;11754;42.664;23.594;2023-05-07T16:41:39;6.13;;;2.60;;
23171;SDS011;11754;42.664;23.594;2023-05-07T16:44:05;8.48;;;2.80;;
23171;SDS011;11754;42.664;23.594;2023-05-07T16:46:30;4.93;;;3.20;;
23171;SDS011;11754;42.664;23.594;2023-05-07T16:48:57;6.45;;;2.95;;
23171;SDS011;11754;42.664;23.594;2023-05-07T16:51:22;7.18;;;2.90;;
23171;SDS011;11754;42.664;23.594;2023-05-07T16:53:49;10.02;;;3.00;;
23171;SDS011;11754;42.664;23.594;2023-05-07T16:56:14;6.88;;;2.80;;
23171;SDS011;11754;42.664;23.594;2023-05-07T16:58:40;7.78;;;3.10;;
23171;SDS011;11754;42.664;23.594;2023-05-07T17:01:06;9.52;;;5.82;;
23171;SDS011;11754;42.664;23.594;2023-05-07T17:03:31;7.68;;;4.50;;
23171;SDS011;11754;42.664;23.594;2023-05-07T17:05:56;6.35;;;3.38;;
23171;SDS011;11754;42.664;23.594;2023-05-07T17:08:22;5.85;;;3.20;;
23171;SDS011;11754;42.664;23.594;2023-05-07T17:10:47;6.28;;;2.90;;
23171;SDS011;11754;42.664;23.594;2023-05-07T17:13:13;7.72;;;2.63;;